sensor_id;sensor_type;location;lat;lon;timestamp;P1;durP1;ratioP1;P2;durP2;ratioP2
8652;SDS011;4364;52.426;9.424;2022-12-07T00:01:31;47.67;;;26.73;;
8652;SDS011;4364;52.426;9.424;2022-12-07T00:04:00;46.77;;;24.73;;
8652;SDS011;4364;52.426;9.424;2022-12-07T00:06:32;47.00;;;25.83;;
8652;SDS011;4364;52.426;9.424;2022-12-07T00:08:59;50.57;;;27.07;;
8652;SDS011;4364;52.426;9.424;2022-12-07T00:11:26;44.60;;;25.17;;
8652;SDS011;4364;52.426;9.424;2022-12-07T00:13:54;44.80;;;25.50;;
8652;SDS011;4364;52.426;9.424;2022-12-07T00:16:29;44.00;;;25.03;;
8652;SDS011;4364;52.426;9.424;2022-12-07T00:18:56;42.63;;;24.80;;
8652;SDS011;4364;52.426;9.424;2022-12-07T00:21:25;41.20;;;25.40;;
8652;SDS011;4364;52.426;9.424;2022-12-07T00:23:54;45.00;;;25.37;;
8652;SDS011;4364;52.426;9.424;2022-12-07T00:26:23;44.53;;;26.30;;
8652;SDS011;4364;52.426;9.424;2022-12-07T00:28:54;43.70;;;25.87;;
8652;SDS011;4364;52.426;9.424;2022-12-07T00:31:24;46.27;;;26.00;;
8652;SDS011;4364;52.426;9.424;2022-12-07T00:33:52;45.90;;;25.60;;
8652;SDS011;4364;52.426;9.424;2022-12-07T00:36:20;41.40;;;24.93;;
8652;SDS011;4364;52.426;9.424;2022-12-07T00:38:52;49.57;;;26.97;;
8652;SDS011;4364;52.426;9.424;2022-12-07T00:41:20;46.67;;;26.40;;
8652;SDS011;4364;52.426;9.424;2022-12-07T00:43:49;41.30;;;25.73;;
8652;SDS011;4364;52.426;9.424;2022-12-07T00:46:16;47.60;;;26.10;;
8652;SDS011;4364;52.426;9.424;2022-12-07T00:48:45;44.00;;;26.27;;
8652;SDS011;4364;52.426;9.424;2022-12-07T00:51:12;46.00;;;27.73;;
8652;SDS011;4364;52.426;9.424;2022-12-07T00:53:41;48.37;;;26.97;;
8652;SDS011;4364;52.426;9.424;2022-12-07T00:56:08;47.27;;;26.43;;
8652;SDS011;4364;52.426;9.424;2022-12-07T00:58:37;44.33;;;26.77;;
8652;SDS011;4364;52.426;9.424;2022-12-07T01:01:04;48.93;;;26.40;;
8652;SDS011;4364;52.426;9.424;2022-12-07T01:03:33;41.07;;;24.83;;
8652;SDS011;4364;52.426;9.424;2022-12-07T01:05:59;42.57;;;25.97;;
8652;SDS011;4364;52.426;9.424;2022-12-07T01:08:26;39.10;;;24.20;;
8652;SDS011;4364;52.426;9.424;2022-12-07T01:11:01;42.03;;;25.27;;
8652;SDS011;4364;52.426;9.424;2022-12-07T01:13:30;39.73;;;23.73;;
8652;SDS011;4364;52.426;9.424;2022-12-07T01:15:58;41.03;;;24.37;;
8652;SDS011;4364;52.426;9.424;2022-12-07T01:18:26;43.33;;;24.37;;
8652;SDS011;4364;52.426;9.424;2022-12-07T01:20:58;38.67;;;24.13;;
8652;SDS011;4364;52.426;9.424;2022-12-07T01:23:25;43.97;;;25.57;;
8652;SDS011;4364;52.426;9.424;2022-12-07T01:25:59;41.63;;;25.07;;
8652;SDS011;4364;52.426;9.424;2022-12-07T01:28:27;39.60;;;24.03;;
8652;SDS011;4364;52.426;9.424;2022-12-07T01:30:58;39.17;;;24.07;;
8652;SDS011;4364;52.426;9.424;2022-12-07T01:33:29;37.70;;;22.93;;
8652;SDS011;4364;52.426;9.424;2022-12-07T01:36:16;34.07;;;22.97;;
8652;SDS011;4364;52.426;9.424;2022-12-07T01:38:48;36.40;;;22.20;;
8652;SDS011;4364;52.426;9.424;2022-12-07T01:41:18;36.90;;;22.50;;
8652;SDS011;4364;52.426;9.424;2022-12-07T01:46:33;33.37;;;21.43;;
8652;SDS011;4364;52.426;9.424;2022-12-07T01:49:00;35.80;;;21.47;;
8652;SDS011;4364;52.426;9.424;2022-12-07T01:51:29;37.10;;;21.63;;
8652;SDS011;4364;52.426;9.424;2022-12-07T01:53:55;36.30;;;20.83;;
8652;SDS011;4364;52.426;9.424;2022-12-07T01:56:23;37.73;;;21.93;;
8652;SDS011;4364;52.426;9.424;2022-12-07T01:58:52;35.53;;;20.73;;
8652;SDS011;4364;52.426;9.424;2022-12-07T02:01:21;35.87;;;19.63;;
8652;SDS011;4364;52.426;9.424;2022-12-07T02:03:48;34.53;;;21.57;;
8652;SDS011;4364;52.426;9.424;2022-12-07T02:06:16;33.27;;;20.43;;
8652;SDS011;4364;52.426;9.424;2022-12-07T02:08:46;33.37;;;19.37;;
8652;SDS011;4364;52.426;9.424;2022-12-07T02:11:13;31.67;;;19.93;;
8652;SDS011;4364;52.426;9.424;2022-12-07T02:13:40;30.07;;;18.93;;
8652;SDS011;4364;52.426;9.424;2022-12-07T02:25:07;28.33;;;17.20;;
8652;SDS011;4364;52.426;9.424;2022-12-07T02:30:38;31.47;;;16.23;;
8652;SDS011;4364;52.426;9.424;2022-12-07T02:33:14;27.73;;;15.27;;
8652;SDS011;4364;52.426;9.424;2022-12-07T02:35:48;27.60;;;15.40;;
8652;SDS011;4364;52.426;9.424;2022-12-07T02:41:18;24.10;;;15.30;;
8652;SDS011;4364;52.426;9.424;2022-12-07T02:43:55;24.50;;;15.20;;
8652;SDS011;4364;52.426;9.424;2022-12-07T02:46:28;25.93;;;16.00;;
8652;SDS011;4364;52.426;9.424;2022-12-07T02:48:58;24.17;;;14.90;;
8652;SDS011;4364;52.426;9.424;2022-12-07T02:51:30;22.30;;;14.50;;
8652;SDS011;4364;52.426;9.424;2022-12-07T02:53:58;22.30;;;14.13;;
8652;SDS011;4364;52.426;9.424;2022-12-07T03:10:18;23.53;;;13.67;;
8652;SDS011;4364;52.426;9.424;2022-12-07T03:16:02;22.23;;;12.77;;
8652;SDS011;4364;52.426;9.424;2022-12-07T03:18:40;21.00;;;11.83;;
8652;SDS011;4364;52.426;9.424;2022-12-07T03:21:18;19.67;;;13.03;;
8652;SDS011;4364;52.426;9.424;2022-12-07T03:23:48;23.07;;;13.17;;
8652;SDS011;4364;52.426;9.424;2022-12-07T03:26:20;21.30;;;13.10;;
8652;SDS011;4364;52.426;9.424;2022-12-07T03:28:51;21.93;;;12.83;;
8652;SDS011;4364;52.426;9.424;2022-12-07T03:31:22;25.63;;;12.87;;
8652;SDS011;4364;52.426;9.424;2022-12-07T03:34:04;24.87;;;12.97;;
8652;SDS011;4364;52.426;9.424;2022-12-07T03:36:42;19.97;;;12.53;;
8652;SDS011;4364;52.426;9.424;2022-12-07T03:41:40;22.60;;;12.83;;
8652;SDS011;4364;52.426;9.424;2022-12-07T03:44:10;22.97;;;12.77;;
8652;SDS011;4364;52.426;9.424;2022-12-07T03:49:25;23.53;;;12.97;;
8652;SDS011;4364;52.426;9.424;2022-12-07T03:52:00;24.27;;;13.17;;
8652;SDS011;4364;52.426;9.424;2022-12-07T03:54:57;20.37;;;12.73;;
8652;SDS011;4364;52.426;9.424;2022-12-07T03:57:21;22.87;;;12.67;;
8652;SDS011;4364;52.426;9.424;2022-12-07T03:59:50;24.03;;;13.33;;
8652;SDS011;4364;52.426;9.424;2022-12-07T04:02:18;21.30;;;12.53;;
8652;SDS011;4364;52.426;9.424;2022-12-07T04:04:44;21.03;;;12.07;;
8652;SDS011;4364;52.426;9.424;2022-12-07T04:07:11;21.27;;;12.23;;
8652;SDS011;4364;52.426;9.424;2022-12-07T04:09:39;24.27;;;12.27;;
8652;SDS011;4364;52.426;9.424;2022-12-07T04:12:05;24.30;;;12.17;;
8652;SDS011;4364;52.426;9.424;2022-12-07T04:14:32;23.23;;;12.13;;
8652;SDS011;4364;52.426;9.424;2022-12-07T04:16:58;22.93;;;12.97;;
8652;SDS011;4364;52.426;9.424;2022-12-07T04:19:28;22.93;;;12.47;;
8652;SDS011;4364;52.426;9.424;2022-12-07T04:21:57;23.77;;;11.77;;
8652;SDS011;4364;52.426;9.424;2022-12-07T04:24:25;21.30;;;11.70;;
8652;SDS011;4364;52.426;9.424;2022-12-07T04:26:52;24.57;;;11.87;;
8652;SDS011;4364;52.426;9.424;2022-12-07T04:29:18;21.27;;;11.73;;
8652;SDS011;4364;52.426;9.424;2022-12-07T04:31:45;20.60;;;11.13;;
8652;SDS011;4364;52.426;9.424;2022-12-07T04:34:12;20.87;;;11.10;;
8652;SDS011;4364;52.426;9.424;2022-12-07T04:36:39;21.30;;;11.27;;
8652;SDS011;4364;52.426;9.424;2022-12-07T04:39:07;22.47;;;11.07;;
8652;SDS011;4364;52.426;9.424;2022-12-07T04:41:39;21.80;;;10.67;;
8652;SDS011;4364;52.426;9.424;2022-12-07T04:44:06;18.53;;;10.80;;
8652;SDS011;4364;52.426;9.424;2022-12-07T04:46:33;20.10;;;10.73;;
8652;SDS011;4364;52.426;9.424;2022-12-07T04:49:00;23.70;;;10.87;;
8652;SDS011;4364;52.426;9.424;2022-12-07T04:51:27;20.60;;;10.77;;
8652;SDS011;4364;52.426;9.424;2022-12-07T04:53:55;25.70;;;11.40;;
8652;SDS011;4364;52.426;9.424;2022-12-07T04:56:23;22.53;;;10.70;;
8652;SDS011;4364;52.426;9.424;2022-12-07T04:58:50;19.47;;;10.60;;
8652;SDS011;4364;52.426;9.424;2022-12-07T05:01:18;19.37;;;10.00;;
8652;SDS011;4364;52.426;9.424;2022-12-07T05:03:45;21.47;;;10.67;;
8652;SDS011;4364;52.426;9.424;2022-12-07T05:06:12;19.13;;;9.60;;
8652;SDS011;4364;52.426;9.424;2022-12-07T05:08:40;21.13;;;10.00;;
8652;SDS011;4364;52.426;9.424;2022-12-07T05:11:07;19.40;;;9.97;;
8652;SDS011;4364;52.426;9.424;2022-12-07T05:13:34;19.80;;;10.63;;
8652;SDS011;4364;52.426;9.424;2022-12-07T05:16:02;21.67;;;10.50;;
8652;SDS011;4364;52.426;9.424;2022-12-07T05:18:29;19.30;;;9.93;;
8652;SDS011;4364;52.426;9.424;2022-12-07T05:20:55;23.80;;;10.57;;
8652;SDS011;4364;52.426;9.424;2022-12-07T05:23:22;22.47;;;9.90;;
8652;SDS011;4364;52.426;9.424;2022-12-07T05:25:48;18.07;;;9.57;;
8652;SDS011;4364;52.426;9.424;2022-12-07T05:28:15;17.57;;;9.80;;
8652;SDS011;4364;52.426;9.424;2022-12-07T05:30:42;19.97;;;9.37;;
8652;SDS011;4364;52.426;9.424;2022-12-07T05:33:09;20.90;;;9.53;;
8652;SDS011;4364;52.426;9.424;2022-12-07T05:35:35;16.87;;;9.20;;
8652;SDS011;4364;52.426;9.424;2022-12-07T05:38:03;24.47;;;9.47;;
8652;SDS011;4364;52.426;9.424;2022-12-07T05:40:30;17.83;;;8.53;;
8652;SDS011;4364;52.426;9.424;2022-12-07T05:42:57;22.20;;;8.37;;
8652;SDS011;4364;52.426;9.424;2022-12-07T05:45:30;16.87;;;7.97;;
8652;SDS011;4364;52.426;9.424;2022-12-07T05:47:56;17.33;;;8.60;;
8652;SDS011;4364;52.426;9.424;2022-12-07T05:50:23;19.80;;;8.00;;
8652;SDS011;4364;52.426;9.424;2022-12-07T05:52:59;14.37;;;7.20;;
8652;SDS011;4364;52.426;9.424;2022-12-07T05:55:26;15.60;;;7.00;;
8652;SDS011;4364;52.426;9.424;2022-12-07T05:57:53;17.30;;;7.17;;
8652;SDS011;4364;52.426;9.424;2022-12-07T06:00:38;13.87;;;6.67;;
8652;SDS011;4364;52.426;9.424;2022-12-07T06:03:04;13.43;;;6.60;;
8652;SDS011;4364;52.426;9.424;2022-12-07T06:05:31;12.97;;;6.07;;
8652;SDS011;4364;52.426;9.424;2022-12-07T06:07:58;14.27;;;6.13;;
8652;SDS011;4364;52.426;9.424;2022-12-07T06:10:31;14.87;;;5.90;;
8652;SDS011;4364;52.426;9.424;2022-12-07T06:12:57;11.27;;;4.97;;
8652;SDS011;4364;52.426;9.424;2022-12-07T06:15:24;13.47;;;5.50;;
8652;SDS011;4364;52.426;9.424;2022-12-07T06:17:50;12.03;;;5.27;;
8652;SDS011;4364;52.426;9.424;2022-12-07T06:20:17;14.50;;;5.07;;
8652;SDS011;4364;52.426;9.424;2022-12-07T06:22:43;13.30;;;5.37;;
8652;SDS011;4364;52.426;9.424;2022-12-07T06:25:10;12.37;;;5.40;;
8652;SDS011;4364;52.426;9.424;2022-12-07T06:27:36;11.43;;;4.17;;
8652;SDS011;4364;52.426;9.424;2022-12-07T06:30:03;8.47;;;4.17;;
8652;SDS011;4364;52.426;9.424;2022-12-07T06:32:33;10.43;;;4.37;;
8652;SDS011;4364;52.426;9.424;2022-12-07T06:34:59;11.80;;;4.33;;
8652;SDS011;4364;52.426;9.424;2022-12-07T06:37:26;7.63;;;3.80;;
8652;SDS011;4364;52.426;9.424;2022-12-07T06:39:52;8.40;;;4.33;;
8652;SDS011;4364;52.426;9.424;2022-12-07T06:42:19;7.80;;;3.77;;
8652;SDS011;4364;52.426;9.424;2022-12-07T06:44:46;9.40;;;3.80;;
8652;SDS011;4364;52.426;9.424;2022-12-07T06:47:12;6.53;;;3.67;;
8652;SDS011;4364;52.426;9.424;2022-12-07T06:49:59;7.83;;;3.60;;
8652;SDS011;4364;52.426;9.424;2022-12-07T06:52:26;9.77;;;4.07;;
8652;SDS011;4364;52.426;9.424;2022-12-07T06:54:52;7.07;;;3.57;;
8652;SDS011;4364;52.426;9.424;2022-12-07T06:57:19;7.93;;;3.53;;
8652;SDS011;4364;52.426;9.424;2022-12-07T06:59:46;8.67;;;3.37;;
8652;SDS011;4364;52.426;9.424;2022-12-07T07:02:12;6.77;;;3.50;;
8652;SDS011;4364;52.426;9.424;2022-12-07T07:04:39;8.10;;;3.07;;
8652;SDS011;4364;52.426;9.424;2022-12-07T07:07:06;9.50;;;3.07;;
8652;SDS011;4364;52.426;9.424;2022-12-07T07:09:32;7.80;;;2.80;;
8652;SDS011;4364;52.426;9.424;2022-12-07T07:11:59;7.13;;;3.27;;
8652;SDS011;4364;52.426;9.424;2022-12-07T07:14:26;10.50;;;2.60;;
8652;SDS011;4364;52.426;9.424;2022-12-07T07:16:52;5.33;;;2.30;;
8652;SDS011;4364;52.426;9.424;2022-12-07T07:19:19;5.77;;;2.70;;
8652;SDS011;4364;52.426;9.424;2022-12-07T07:21:45;8.57;;;2.80;;
8652;SDS011;4364;52.426;9.424;2022-12-07T07:24:12;10.90;;;2.63;;
8652;SDS011;4364;52.426;9.424;2022-12-07T07:26:38;6.83;;;3.03;;
8652;SDS011;4364;52.426;9.424;2022-12-07T07:29:05;7.93;;;2.67;;
8652;SDS011;4364;52.426;9.424;2022-12-07T07:31:31;6.30;;;2.30;;
8652;SDS011;4364;52.426;9.424;2022-12-07T07:33:58;9.80;;;2.43;;
8652;SDS011;4364;52.426;9.424;2022-12-07T07:36:24;6.33;;;2.50;;
8652;SDS011;4364;52.426;9.424;2022-12-07T07:38:51;5.13;;;1.90;;
8652;SDS011;4364;52.426;9.424;2022-12-07T07:41:17;5.47;;;2.40;;
8652;SDS011;4364;52.426;9.424;2022-12-07T07:43:43;8.40;;;2.20;;
8652;SDS011;4364;52.426;9.424;2022-12-07T07:46:10;6.90;;;2.17;;
8652;SDS011;4364;52.426;9.424;2022-12-07T07:48:37;8.07;;;2.70;;
8652;SDS011;4364;52.426;9.424;2022-12-07T07:51:07;6.03;;;2.23;;
8652;SDS011;4364;52.426;9.424;2022-12-07T07:53:34;5.93;;;2.30;;
8652;SDS011;4364;52.426;9.424;2022-12-07T07:56:00;6.33;;;2.13;;
8652;SDS011;4364;52.426;9.424;2022-12-07T07:58:27;9.17;;;2.40;;
8652;SDS011;4364;52.426;9.424;2022-12-07T08:00:54;6.73;;;2.30;;
8652;SDS011;4364;52.426;9.424;2022-12-07T08:03:20;7.30;;;2.07;;
8652;SDS011;4364;52.426;9.424;2022-12-07T08:05:46;8.00;;;2.50;;
8652;SDS011;4364;52.426;9.424;2022-12-07T08:08:13;5.33;;;1.77;;
8652;SDS011;4364;52.426;9.424;2022-12-07T08:10:40;7.07;;;1.93;;
8652;SDS011;4364;52.426;9.424;2022-12-07T08:13:06;9.63;;;2.30;;
8652;SDS011;4364;52.426;9.424;2022-12-07T08:15:43;10.73;;;2.17;;
8652;SDS011;4364;52.426;9.424;2022-12-07T08:18:11;6.40;;;1.93;;
8652;SDS011;4364;52.426;9.424;2022-12-07T08:20:39;6.03;;;2.10;;
8652;SDS011;4364;52.426;9.424;2022-12-07T08:23:06;6.53;;;2.33;;
8652;SDS011;4364;52.426;9.424;2022-12-07T08:25:34;5.80;;;1.90;;
8652;SDS011;4364;52.426;9.424;2022-12-07T08:28:01;5.73;;;1.83;;
8652;SDS011;4364;52.426;9.424;2022-12-07T08:30:28;8.67;;;1.70;;
8652;SDS011;4364;52.426;9.424;2022-12-07T08:32:56;10.57;;;2.10;;
8652;SDS011;4364;52.426;9.424;2022-12-07T08:35:22;6.03;;;1.93;;
8652;SDS011;4364;52.426;9.424;2022-12-07T08:37:49;6.47;;;2.03;;
8652;SDS011;4364;52.426;9.424;2022-12-07T08:40:16;6.77;;;1.90;;
8652;SDS011;4364;52.426;9.424;2022-12-07T08:42:51;4.37;;;1.90;;
8652;SDS011;4364;52.426;9.424;2022-12-07T08:45:18;5.40;;;1.83;;
8652;SDS011;4364;52.426;9.424;2022-12-07T08:47:54;4.63;;;1.87;;
8652;SDS011;4364;52.426;9.424;2022-12-07T08:50:24;5.20;;;1.70;;
8652;SDS011;4364;52.426;9.424;2022-12-07T08:52:52;5.83;;;2.40;;
8652;SDS011;4364;52.426;9.424;2022-12-07T08:55:23;6.13;;;2.07;;
8652;SDS011;4364;52.426;9.424;2022-12-07T08:57:49;4.50;;;1.80;;
8652;SDS011;4364;52.426;9.424;2022-12-07T09:00:17;8.67;;;2.00;;
8652;SDS011;4364;52.426;9.424;2022-12-07T09:02:44;6.27;;;1.60;;
8652;SDS011;4364;52.426;9.424;2022-12-07T09:05:12;7.37;;;1.90;;
8652;SDS011;4364;52.426;9.424;2022-12-07T09:07:46;4.63;;;2.00;;
8652;SDS011;4364;52.426;9.424;2022-12-07T09:10:17;12.90;;;2.37;;
8652;SDS011;4364;52.426;9.424;2022-12-07T09:12:43;3.80;;;1.60;;
8652;SDS011;4364;52.426;9.424;2022-12-07T09:15:10;5.87;;;1.70;;
8652;SDS011;4364;52.426;9.424;2022-12-07T09:17:36;6.73;;;2.03;;
8652;SDS011;4364;52.426;9.424;2022-12-07T09:20:04;7.63;;;1.77;;
8652;SDS011;4364;52.426;9.424;2022-12-07T09:22:32;4.23;;;1.50;;
8652;SDS011;4364;52.426;9.424;2022-12-07T09:24:59;6.27;;;1.70;;
8652;SDS011;4364;52.426;9.424;2022-12-07T09:27:26;5.17;;;1.80;;
8652;SDS011;4364;52.426;9.424;2022-12-07T09:29:53;4.43;;;1.60;;
8652;SDS011;4364;52.426;9.424;2022-12-07T09:32:19;7.00;;;1.80;;
8652;SDS011;4364;52.426;9.424;2022-12-07T09:34:46;4.50;;;1.63;;
8652;SDS011;4364;52.426;9.424;2022-12-07T09:37:13;6.43;;;2.20;;
8652;SDS011;4364;52.426;9.424;2022-12-07T09:39:40;4.07;;;2.07;;
8652;SDS011;4364;52.426;9.424;2022-12-07T09:42:19;7.30;;;1.60;;
8652;SDS011;4364;52.426;9.424;2022-12-07T09:45:00;6.50;;;1.93;;
8652;SDS011;4364;52.426;9.424;2022-12-07T09:47:27;4.23;;;1.43;;
8652;SDS011;4364;52.426;9.424;2022-12-07T09:49:57;4.70;;;1.50;;
8652;SDS011;4364;52.426;9.424;2022-12-07T09:52:30;7.20;;;1.90;;
8652;SDS011;4364;52.426;9.424;2022-12-07T09:55:08;9.43;;;2.23;;
8652;SDS011;4364;52.426;9.424;2022-12-07T09:57:38;5.80;;;1.80;;
8652;SDS011;4364;52.426;9.424;2022-12-07T10:00:13;7.03;;;2.00;;
8652;SDS011;4364;52.426;9.424;2022-12-07T10:02:43;7.30;;;2.03;;
8652;SDS011;4364;52.426;9.424;2022-12-07T10:05:24;5.07;;;2.03;;
8652;SDS011;4364;52.426;9.424;2022-12-07T10:07:57;5.67;;;1.90;;
8652;SDS011;4364;52.426;9.424;2022-12-07T10:10:25;9.93;;;2.17;;
8652;SDS011;4364;52.426;9.424;2022-12-07T10:13:00;5.33;;;2.33;;
8652;SDS011;4364;52.426;9.424;2022-12-07T10:18:37;7.07;;;1.93;;
8652;SDS011;4364;52.426;9.424;2022-12-07T10:23:36;8.80;;;1.90;;
8652;SDS011;4364;52.426;9.424;2022-12-07T10:26:20;5.53;;;1.73;;
8652;SDS011;4364;52.426;9.424;2022-12-07T10:28:54;6.50;;;1.97;;
8652;SDS011;4364;52.426;9.424;2022-12-07T10:31:22;6.17;;;1.90;;
8652;SDS011;4364;52.426;9.424;2022-12-07T10:33:54;4.77;;;2.13;;
8652;SDS011;4364;52.426;9.424;2022-12-07T10:41:52;9.40;;;1.93;;
8652;SDS011;4364;52.426;9.424;2022-12-07T10:44:21;7.10;;;2.40;;
8652;SDS011;4364;52.426;9.424;2022-12-07T10:58:15;11.67;;;2.30;;
8652;SDS011;4364;52.426;9.424;2022-12-07T11:03:29;8.03;;;2.40;;
8652;SDS011;4364;52.426;9.424;2022-12-07T11:06:35;6.30;;;2.07;;
8652;SDS011;4364;52.426;9.424;2022-12-07T11:37:45;5.57;;;2.27;;
8652;SDS011;4364;52.426;9.424;2022-12-07T11:40:15;7.20;;;2.40;;
8652;SDS011;4364;52.426;9.424;2022-12-07T11:43:01;5.57;;;1.80;;
8652;SDS011;4364;52.426;9.424;2022-12-07T11:45:52;5.30;;;2.00;;
8652;SDS011;4364;52.426;9.424;2022-12-07T11:48:35;7.23;;;1.93;;
8652;SDS011;4364;52.426;9.424;2022-12-07T11:51:07;4.23;;;1.60;;
8652;SDS011;4364;52.426;9.424;2022-12-07T11:56:17;6.93;;;1.90;;
8652;SDS011;4364;52.426;9.424;2022-12-07T12:03:47;7.00;;;2.23;;
8652;SDS011;4364;52.426;9.424;2022-12-07T12:06:19;7.10;;;2.50;;
8652;SDS011;4364;52.426;9.424;2022-12-07T12:08:48;6.50;;;2.40;;
8652;SDS011;4364;52.426;9.424;2022-12-07T12:11:50;6.00;;;2.80;;
8652;SDS011;4364;52.426;9.424;2022-12-07T12:26:03;9.53;;;3.13;;
8652;SDS011;4364;52.426;9.424;2022-12-07T12:28:35;12.00;;;2.60;;
8652;SDS011;4364;52.426;9.424;2022-12-07T12:31:16;6.93;;;2.27;;
8652;SDS011;4364;52.426;9.424;2022-12-07T12:34:00;6.37;;;2.03;;
8652;SDS011;4364;52.426;9.424;2022-12-07T12:39:10;7.30;;;2.50;;
8652;SDS011;4364;52.426;9.424;2022-12-07T12:46:57;7.27;;;2.37;;
8652;SDS011;4364;52.426;9.424;2022-12-07T12:54:30;10.10;;;2.57;;
8652;SDS011;4364;52.426;9.424;2022-12-07T13:02:35;8.23;;;2.37;;
8652;SDS011;4364;52.426;9.424;2022-12-07T13:13:04;5.73;;;2.40;;
8652;SDS011;4364;52.426;9.424;2022-12-07T13:15:52;10.23;;;2.00;;
8652;SDS011;4364;52.426;9.424;2022-12-07T13:20:56;8.87;;;2.20;;
8652;SDS011;4364;52.426;9.424;2022-12-07T13:23:29;8.30;;;2.03;;
8652;SDS011;4364;52.426;9.424;2022-12-07T13:26:09;7.07;;;2.50;;
8652;SDS011;4364;52.426;9.424;2022-12-07T13:28:50;12.67;;;2.40;;
8652;SDS011;4364;52.426;9.424;2022-12-07T13:31:32;8.23;;;2.03;;
8652;SDS011;4364;52.426;9.424;2022-12-07T13:34:02;6.50;;;2.30;;
8652;SDS011;4364;52.426;9.424;2022-12-07T13:36:32;4.83;;;1.70;;
8652;SDS011;4364;52.426;9.424;2022-12-07T13:41:49;6.27;;;1.70;;
8652;SDS011;4364;52.426;9.424;2022-12-07T13:44:18;7.30;;;1.77;;
8652;SDS011;4364;52.426;9.424;2022-12-07T13:49:29;7.00;;;1.83;;
8652;SDS011;4364;52.426;9.424;2022-12-07T13:52:11;5.67;;;1.67;;
8652;SDS011;4364;52.426;9.424;2022-12-07T13:54:47;6.67;;;2.07;;
8652;SDS011;4364;52.426;9.424;2022-12-07T13:57:18;6.03;;;2.13;;
8652;SDS011;4364;52.426;9.424;2022-12-07T13:59:44;5.33;;;1.80;;
8652;SDS011;4364;52.426;9.424;2022-12-07T14:04:48;6.20;;;1.90;;
8652;SDS011;4364;52.426;9.424;2022-12-07T14:09:57;9.90;;;2.03;;
8652;SDS011;4364;52.426;9.424;2022-12-07T14:12:30;6.60;;;1.80;;
8652;SDS011;4364;52.426;9.424;2022-12-07T14:14:58;6.90;;;1.83;;
8652;SDS011;4364;52.426;9.424;2022-12-07T14:17:27;8.40;;;2.17;;
8652;SDS011;4364;52.426;9.424;2022-12-07T14:19:57;4.73;;;2.10;;
8652;SDS011;4364;52.426;9.424;2022-12-07T14:27:59;3.60;;;1.83;;
8652;SDS011;4364;52.426;9.424;2022-12-07T14:30:28;6.20;;;2.10;;
8652;SDS011;4364;52.426;9.424;2022-12-07T14:33:00;8.33;;;2.60;;
8652;SDS011;4364;52.426;9.424;2022-12-07T14:35:29;6.10;;;2.67;;
8652;SDS011;4364;52.426;9.424;2022-12-07T14:37:58;7.93;;;2.30;;
8652;SDS011;4364;52.426;9.424;2022-12-07T14:40:26;9.57;;;2.40;;
8652;SDS011;4364;52.426;9.424;2022-12-07T14:43:16;5.67;;;2.00;;
8652;SDS011;4364;52.426;9.424;2022-12-07T14:45:42;5.73;;;2.63;;
8652;SDS011;4364;52.426;9.424;2022-12-07T14:48:13;5.97;;;2.53;;
8652;SDS011;4364;52.426;9.424;2022-12-07T14:51:01;6.57;;;2.43;;
8652;SDS011;4364;52.426;9.424;2022-12-07T14:53:49;7.13;;;2.50;;
8652;SDS011;4364;52.426;9.424;2022-12-07T14:56:22;10.37;;;2.90;;
8652;SDS011;4364;52.426;9.424;2022-12-07T14:58:49;8.80;;;2.77;;
8652;SDS011;4364;52.426;9.424;2022-12-07T15:01:16;6.23;;;2.60;;
8652;SDS011;4364;52.426;9.424;2022-12-07T15:03:43;6.17;;;2.63;;
8652;SDS011;4364;52.426;9.424;2022-12-07T15:06:10;5.33;;;2.40;;
8652;SDS011;4364;52.426;9.424;2022-12-07T15:08:40;7.53;;;2.67;;
8652;SDS011;4364;52.426;9.424;2022-12-07T15:11:09;7.10;;;2.53;;
8652;SDS011;4364;52.426;9.424;2022-12-07T15:13:38;7.20;;;2.93;;
8652;SDS011;4364;52.426;9.424;2022-12-07T15:16:24;9.50;;;2.93;;
8652;SDS011;4364;52.426;9.424;2022-12-07T15:18:50;7.90;;;2.67;;
8652;SDS011;4364;52.426;9.424;2022-12-07T15:21:37;7.17;;;2.50;;
8652;SDS011;4364;52.426;9.424;2022-12-07T15:24:04;10.50;;;2.57;;
8652;SDS011;4364;52.426;9.424;2022-12-07T15:26:31;6.83;;;2.20;;
8652;SDS011;4364;52.426;9.424;2022-12-07T15:28:57;10.53;;;2.93;;
8652;SDS011;4364;52.426;9.424;2022-12-07T15:31:24;7.77;;;2.73;;
8652;SDS011;4364;52.426;9.424;2022-12-07T15:34:10;5.83;;;2.50;;
8652;SDS011;4364;52.426;9.424;2022-12-07T15:36:37;9.83;;;3.00;;
8652;SDS011;4364;52.426;9.424;2022-12-07T15:39:04;8.33;;;2.90;;
8652;SDS011;4364;52.426;9.424;2022-12-07T15:41:40;5.03;;;2.37;;
8652;SDS011;4364;52.426;9.424;2022-12-07T15:44:08;11.83;;;3.63;;
8652;SDS011;4364;52.426;9.424;2022-12-07T15:46:56;6.33;;;3.03;;
8652;SDS011;4364;52.426;9.424;2022-12-07T15:49:23;11.33;;;3.50;;
8652;SDS011;4364;52.426;9.424;2022-12-07T15:51:49;7.57;;;2.70;;
8652;SDS011;4364;52.426;9.424;2022-12-07T15:54:20;6.67;;;2.97;;
8652;SDS011;4364;52.426;9.424;2022-12-07T15:56:48;9.40;;;3.93;;
8652;SDS011;4364;52.426;9.424;2022-12-07T15:59:15;7.90;;;2.93;;
8652;SDS011;4364;52.426;9.424;2022-12-07T16:01:42;37.00;;;15.47;;
8652;SDS011;4364;52.426;9.424;2022-12-07T16:04:09;9.37;;;4.10;;
8652;SDS011;4364;52.426;9.424;2022-12-07T16:06:36;10.67;;;4.50;;
8652;SDS011;4364;52.426;9.424;2022-12-07T16:09:03;6.13;;;3.67;;
8652;SDS011;4364;52.426;9.424;2022-12-07T16:11:31;7.87;;;3.80;;
8652;SDS011;4364;52.426;9.424;2022-12-07T16:13:58;7.77;;;4.67;;
8652;SDS011;4364;52.426;9.424;2022-12-07T16:16:24;13.00;;;4.30;;
8652;SDS011;4364;52.426;9.424;2022-12-07T16:18:52;10.20;;;3.77;;
8652;SDS011;4364;52.426;9.424;2022-12-07T16:21:18;11.60;;;4.47;;
8652;SDS011;4364;52.426;9.424;2022-12-07T16:23:50;8.20;;;3.77;;
8652;SDS011;4364;52.426;9.424;2022-12-07T16:26:18;12.13;;;4.10;;
8652;SDS011;4364;52.426;9.424;2022-12-07T16:28:48;11.20;;;4.90;;
8652;SDS011;4364;52.426;9.424;2022-12-07T16:31:17;12.10;;;4.60;;
8652;SDS011;4364;52.426;9.424;2022-12-07T16:33:46;7.60;;;4.20;;
8652;SDS011;4364;52.426;9.424;2022-12-07T16:36:13;10.60;;;4.70;;
8652;SDS011;4364;52.426;9.424;2022-12-07T16:39:02;12.87;;;5.00;;
8652;SDS011;4364;52.426;9.424;2022-12-07T16:41:30;9.57;;;4.93;;
8652;SDS011;4364;52.426;9.424;2022-12-07T16:43:57;8.17;;;4.60;;
8652;SDS011;4364;52.426;9.424;2022-12-07T16:46:27;11.40;;;5.30;;
8652;SDS011;4364;52.426;9.424;2022-12-07T16:48:54;11.83;;;5.87;;
8652;SDS011;4364;52.426;9.424;2022-12-07T16:51:21;9.67;;;4.93;;
8652;SDS011;4364;52.426;9.424;2022-12-07T16:53:47;18.93;;;10.13;;
8652;SDS011;4364;52.426;9.424;2022-12-07T16:56:15;25.60;;;11.70;;
8652;SDS011;4364;52.426;9.424;2022-12-07T16:58:42;16.53;;;6.67;;
8652;SDS011;4364;52.426;9.424;2022-12-07T17:01:13;13.87;;;6.67;;
8652;SDS011;4364;52.426;9.424;2022-12-07T17:03:41;9.67;;;4.93;;
8652;SDS011;4364;52.426;9.424;2022-12-07T17:06:16;15.40;;;5.57;;
8652;SDS011;4364;52.426;9.424;2022-12-07T17:08:44;16.10;;;4.97;;
8652;SDS011;4364;52.426;9.424;2022-12-07T17:11:22;15.77;;;5.70;;
8652;SDS011;4364;52.426;9.424;2022-12-07T17:13:50;9.07;;;4.60;;
8652;SDS011;4364;52.426;9.424;2022-12-07T17:16:36;10.33;;;6.00;;
8652;SDS011;4364;52.426;9.424;2022-12-07T17:19:03;12.10;;;5.80;;
8652;SDS011;4364;52.426;9.424;2022-12-07T17:21:31;8.57;;;4.67;;
8652;SDS011;4364;52.426;9.424;2022-12-07T17:23:59;7.47;;;5.33;;
8652;SDS011;4364;52.426;9.424;2022-12-07T17:26:26;12.87;;;5.20;;
8652;SDS011;4364;52.426;9.424;2022-12-07T17:29:01;10.03;;;4.90;;
8652;SDS011;4364;52.426;9.424;2022-12-07T17:31:28;9.80;;;5.57;;
8652;SDS011;4364;52.426;9.424;2022-12-07T17:33:55;11.47;;;4.93;;
8652;SDS011;4364;52.426;9.424;2022-12-07T17:36:23;7.97;;;4.80;;
8652;SDS011;4364;52.426;9.424;2022-12-07T17:38:52;7.70;;;4.47;;
8652;SDS011;4364;52.426;9.424;2022-12-07T17:41:20;7.83;;;4.37;;
8652;SDS011;4364;52.426;9.424;2022-12-07T17:44:08;17.87;;;12.53;;
8652;SDS011;4364;52.426;9.424;2022-12-07T17:46:37;13.67;;;8.63;;
8652;SDS011;4364;52.426;9.424;2022-12-07T17:49:04;10.17;;;5.73;;
8652;SDS011;4364;52.426;9.424;2022-12-07T17:51:31;12.93;;;5.70;;
8652;SDS011;4364;52.426;9.424;2022-12-07T17:54:17;11.17;;;6.17;;
8652;SDS011;4364;52.426;9.424;2022-12-07T17:56:44;9.37;;;6.00;;
8652;SDS011;4364;52.426;9.424;2022-12-07T17:59:10;10.90;;;6.20;;